Search for airport 
image banner adimage banner adimage banner ad
image banner ad

11CN - Shasta Rgnl Medical Center

Located in Redding, United States

ICAO - 11CN, IATA -

Data provided by Airmate  

General information

Coordinates: N40°35'8" W122°23'16"
Elevation is 622 feet MSL.
 
View others Airports in California

Operational data

Special qualification required
Current time UTC:
Current local time:
Weather at : KRDD - Redding Muni ( 12 km )
METAR: KRDD 260853Z AUTO 00000KT 10SM CLR 18/08 A2989 RMK AO2 SLP116 T01780083 53012
TAF: KRDD 260537Z 2606/2706 VRB04KT P6SM BKN250 FM262100 17008KT P6SM SCT250
View NOTAMs / SUP AIP / TFR affecting this airport [VIEW]
Communications frequencies: [VIEW]

Runways:

Airport contact information

Address: Redding United States

Satellite view of 11CN